CST,Max TemperatureF,Mean TemperatureF,Min TemperatureF,Max Dew PointF,MeanDew PointF,Min DewpointF,Max Humidity, Mean Humidity, Min Humidity, Max Sea Level PressureIn, Mean Sea Level PressureIn, Min Sea Level PressureIn, Max VisibilityMiles, Mean VisibilityMiles, Min VisibilityMiles, Max Wind SpeedMPH, Mean Wind SpeedMPH, Max Gust SpeedMPH,PrecipitationIn, CloudCover, Events, WindDirDegrees
2014-2-1,55,46,36,49,42,31,90,82,75,30.02,29.90,29.83,10,6,1,17,6,,0.16,8,Rain,277
2014-2-2,36,30,25,31,23,15,86,76,66,30.28,30.18,30.01,10,5,0,21,14,26,0.17,8,Rain-Snow,1
2014-2-3,28,20,12,17,11,5,74,63,44,30.41,30.33,30.26,10,10,9,12,8,,0.00,0,,36
2014-2-4,32,28,25,28,24,17,87,79,66,30.27,30.02,29.87,10,4,0,20,11,24,0.38,7,Rain-Snow,36
2014-2-5,30,26,19,24,18,10,79,69,61,30.57,30.29,29.97,10,9,2,18,10,26,0.00,8,Snow,318
2014-2-6,21,18,12,11,7,4,74,64,57,30.63,30.55,30.50,10,10,10,13,8,,0.00,6,,10
2014-2-7,21,16,10,11,4,0,73,60,50,30.58,30.47,30.35,10,10,10,8,3,,0.00,5,,60
2014-2-8,30,26,21,25,18,12,82,74,66,30.34,30.25,30.16,10,7,2,7,3,,0.03,8,Snow,99
2014-2-9,35,31,26,27,24,18,86,74,59,30.32,30.20,30.11,10,7,2,13,4,,0.00,8,,19
2014-2-10,27,22,15,17,10,0,74,61,43,30.47,30.39,30.29,10,7,1,16,11,21,0.02,4,Snow,33
2014-2-11,28,19,10,8,2,-3,59,50,37,30.53,30.44,30.35,10,10,10,15,12,,0.00,0,,28
2014-2-12,39,26,12,20,12,4,78,59,38,30.32,30.15,30.02,10,10,8,8,6,,0.00,0,,33
2014-2-13,44,32,19,27,21,12,78,63,40,30.04,29.92,29.81,10,10,8,15,4,,0.00,0,,217
2014-2-14,44,36,27,38,28,17,87,75,61,30.10,29.79,29.63,10,8,2,25,7,36,0.31,6,Rain,281
2014-2-15,32,26,21,24,18,12,81,67,58,30.24,30.14,30.04,10,10,5,10,5,,0.00,3,,142
2014-2-16,43,34,26,30,25,21,81,71,58,30.22,30.16,30.03,10,8,5,12,5,,0.00,0,,42
2014-2-17,61,46,30,42,30,24,79,67,32,30.16,30.00,29.84,10,8,4,20,7,32,0.02,4,Rain,218
2014-2-18,62,45,28,47,35,22,86,68,40,30.13,29.98,29.83,10,10,2,14,3,,0.00,1,,193
2014-2-19,57,48,39,49,39,31,89,63,40,30.06,29.91,29.78,10,8,0,13,6,,0.00,3,Fog,135
2014-2-20,71,58,41,60,48,26,81,65,33,29.85,29.63,29.47,10,9,2,34,13,44,0.13,6,Rain-Thunderstorm,211
2014-2-21,57,47,37,29,23,15,65,43,20,30.05,29.99,29.88,10,10,10,17,10,,0.00,0,,221
2014-2-22,64,50,35,35,31,26,70,49,27,30.07,29.98,29.89,10,10,10,16,8,,0.00,0,,197
2014-2-23,46,40,32,34,27,16,73,58,42,30.31,30.12,29.95,10,10,10,20,12,26,0.03,3,,29
2014-2-24,44,36,28,21,16,12,64,45,32,30.38,30.29,30.19,10,10,10,14,9,,0.00,2,,41
2014-2-25,42,36,30,21,19,16,69,51,43,30.26,30.22,30.18,10,10,10,16,9,21,0.00,2,,29
2014-2-26,36,28,21,13,5,-4,60,41,19,30.33,30.21,30.04,10,10,10,22,12,31,0.00,2,,332
2014-2-27,44,36,27,15,12,9,50,38,24,30.13,30.06,30.01,10,10,10,13,7,17,0.00,0,,38
2014-2-28,50,37,24,32,19,9,67,47,31,30.13,30.06,29.96,10,10,10,12,7,18,0.00,3,,116